Time;durP1;ratioP1;P1;durP2;ratioP2;P2;SDS_P1;SDS_P2;PMS_P1;PMS_P2;Temp;Humidity;BMP_temperature;BMP_pressure;BME280_temperature;BME280_humidity;BME280_pressure;Samples;Min_cycle;Max_cycle;Signal;HPM_P1;HPM_P2
2023/09/22 00:00:58;;;;;;;90.78;35.65;;;;;;;;;;5001960;28;20121;-74
2023/09/22 00:03:24;;;;;;;84.95;35.83;;;;;;;;;;4987030;28;20156;-74
2023/09/22 00:05:52;;;;;;;107.38;40.92;;;;;;;;;;5005231;28;21166;-74
2023/09/22 00:08:18;;;;;;;101.38;40.53;;;;;;;;;;4998104;28;20041;-74
2023/09/22 00:10:45;;;;;;;102.32;41.92;;;;;;;;;;4971273;28;20034;-73
2023/09/22 00:13:11;;;;;;;98.35;41.28;;;;;;;;;;4986783;28;20152;-74
2023/09/22 00:15:37;;;;;;;108.63;44.03;;;;;;;;;;4998538;28;20517;-75
2023/09/22 00:18:03;;;;;;;108.20;41.65;;;;;;;;;;4985142;28;20044;-74
2023/09/22 00:20:30;;;;;;;99.20;38.17;;;;;;;;;;5011127;28;20033;-75
2023/09/22 00:22:56;;;;;;;85.97;37.10;;;;;;;;;;4989205;28;20041;-75
2023/09/22 00:25:22;;;;;;;90.78;34.88;;;;;;;;;;5015052;28;20079;-74
2023/09/22 00:27:49;;;;;;;85.07;34.20;;;;;;;;;;4998138;28;20030;-75
2023/09/22 00:30:15;;;;;;;79.93;31.58;;;;;;;;;;4997222;28;20034;-74
2023/09/22 00:32:41;;;;;;;83.93;31.73;;;;;;;;;;4999523;28;20092;-74
2023/09/22 00:35:12;;;;;;;77.53;29.98;;;;;;;;;;4968807;28;20117;-74
2023/09/22 00:37:40;;;;;;;;;;;;;;;;;;4988306;28;20064;-74
2023/09/22 00:40:08;;;;;;;76.95;29.38;;;;;;;;;;4996613;28;19909;-74
2023/09/22 00:42:35;;;;;;;71.45;27.98;;;;;;;;;;4984800;28;20030;-74
2023/09/22 00:45:01;;;;;;;81.13;28.65;;;;;;;;;;4986262;28;20037;-74
2023/09/22 00:47:28;;;;;;;82.05;28.35;;;;;;;;;;4993643;28;20050;-72
2023/09/22 00:49:54;;;;;;;82.18;30.60;;;;;;;;;;4996425;28;20038;-73
2023/09/22 00:52:22;;;;;;;86.25;31.95;;;;;;;;;;5005774;28;20044;-74
2023/09/22 00:54:49;;;;;;;99.70;33.75;;;;;;;;;;5002445;28;20625;-74
2023/09/22 00:57:16;;;;;;;93.35;34.40;;;;;;;;;;4971269;28;20026;-74
2023/09/22 00:59:42;;;;;;;89.15;32.65;;;;;;;;;;5002738;28;20412;-74
2023/09/22 01:02:09;;;;;;;89.75;32.60;;;;;;;;;;5004918;28;20045;-74
2023/09/22 01:04:35;;;;;;;99.53;32.40;;;;;;;;;;4983504;28;20038;-74
2023/09/22 01:07:01;;;;;;;97.72;33.35;;;;;;;;;;4998950;28;20038;-73
2023/09/22 01:09:27;;;;;;;89.38;32.65;;;;;;;;;;4988625;28;20033;-73
2023/09/22 01:11:53;;;;;;;93.07;33.55;;;;;;;;;;4981847;28;20076;-74
2023/09/22 01:14:20;;;;;;;93.68;33.17;;;;;;;;;;5002789;28;20037;-74
2023/09/22 01:16:46;;;;;;;102.18;35.25;;;;;;;;;;5008608;28;20038;-74
2023/09/22 01:19:16;;;;;;;109.43;37.75;;;;;;;;;;5001642;28;20057;-75
2023/09/22 01:21:42;;;;;;;107.97;40.83;;;;;;;;;;5008023;28;20034;-73
2023/09/22 01:24:11;;;;;;;117.80;43.22;;;;;;;;;;5003439;28;20025;-73
2023/09/22 01:26:38;;;;;;;117.63;44.55;;;;;;;;;;4986879;28;20042;-73
2023/09/22 01:29:04;;;;;;;127.22;47.17;;;;;;;;;;4986672;28;20034;-73
2023/09/22 01:31:30;;;;;;;131.05;47.22;;;;;;;;;;4983834;28;20125;-73
2023/09/22 01:33:56;;;;;;;131.95;48.55;;;;;;;;;;5002113;28;20033;-73
2023/09/22 01:36:23;;;;;;;134.45;48.85;;;;;;;;;;4972142;28;20503;-74
2023/09/22 01:38:49;;;;;;;136.95;49.20;;;;;;;;;;5000127;28;20396;-74
2023/09/22 01:41:16;;;;;;;139.02;49.72;;;;;;;;;;4982624;28;20493;-72
2023/09/22 01:43:43;;;;;;;149.15;52.55;;;;;;;;;;5000554;28;20041;-73
2023/09/22 01:46:09;;;;;;;150.63;50.78;;;;;;;;;;4978797;28;20072;-73
2023/09/22 01:48:35;;;;;;;149.38;51.08;;;;;;;;;;5000750;28;20101;-73
2023/09/22 01:51:04;;;;;;;158.85;53.53;;;;;;;;;;4958210;28;20826;-73
2023/09/22 01:53:31;;;;;;;159.13;52.75;;;;;;;;;;4985940;28;20418;-73
2023/09/22 01:55:57;;;;;;;157.18;51.55;;;;;;;;;;5001126;28;20034;-73
2023/09/22 01:58:23;;;;;;;149.90;53.97;;;;;;;;;;4988111;28;20050;-73
2023/09/22 02:00:49;;;;;;;158.30;51.85;;;;;;;;;;4987759;28;20041;-73
2023/09/22 02:03:16;;;;;;;160.90;53.40;;;;;;;;;;4999987;28;20038;-73
2023/09/22 02:05:42;;;;;;;151.13;50.45;;;;;;;;;;4984760;28;20502;-73
2023/09/22 02:08:08;;;;;;;158.30;49.95;;;;;;;;;;4985488;28;20058;-73
2023/09/22 02:10:35;;;;;;;153.55;51.10;;;;;;;;;;4984993;28;20030;-72
2023/09/22 02:13:01;;;;;;;161.55;52.75;;;;;;;;;;4989944;28;20080;-74
2023/09/22 02:15:27;;;;;;;162.27;54.53;;;;;;;;;;4984947;28;20070;-74
2023/09/22 02:17:53;;;;;;;177.00;56.13;;;;;;;;;;4987958;28;20030;-75
2023/09/22 02:20:22;;;;;;;163.27;54.17;;;;;;;;;;5004325;28;20121;-74
2023/09/22 02:22:49;;;;;;;177.00;55.67;;;;;;;;;;5005910;28;20041;-74
2023/09/22 02:25:16;;;;;;;178.00;54.30;;;;;;;;;;5000139;28;20022;-74
2023/09/22 02:27:43;;;;;;;187.63;53.10;;;;;;;;;;4984423;28;20023;-73
2023/09/22 02:30:10;;;;;;;169.63;51.83;;;;;;;;;;5003623;28;20026;-73
2023/09/22 02:32:37;;;;;;;166.00;50.03;;;;;;;;;;4999998;28;20109;-74
2023/09/22 02:35:04;;;;;;;167.10;48.10;;;;;;;;;;5004891;28;20030;-74
2023/09/22 02:37:31;;;;;;;179.88;48.53;;;;;;;;;;5004867;28;20037;-74
2023/09/22 02:39:57;;;;;;;172.05;48.55;;;;;;;;;;4985595;28;20030;-74
2023/09/22 02:42:23;;;;;;;164.15;47.50;;;;;;;;;;4999906;28;20495;-73
2023/09/22 02:44:50;;;;;;;173.50;47.45;;;;;;;;;;4986611;28;20038;-73
2023/09/22 02:47:16;;;;;;;181.02;48.85;;;;;;;;;;4989552;28;20042;-73
2023/09/22 02:49:45;;;;;;;173.73;48.00;;;;;;;;;;5000535;28;20104;-74
2023/09/22 02:52:12;;;;;;;172.77;45.65;;;;;;;;;;4998912;28;20392;-74
2023/09/22 02:54:38;;;;;;;163.88;45.13;;;;;;;;;;5001386;28;20029;-74
2023/09/22 02:57:04;;;;;;;165.02;46.20;;;;;;;;;;5000915;28;20084;-74
2023/09/22 02:59:31;;;;;;;163.45;45.53;;;;;;;;;;4986164;28;20030;-74
2023/09/22 03:01:57;;;;;;;176.25;45.28;;;;;;;;;;5003365;28;20030;-75
2023/09/22 03:04:23;;;;;;;168.40;45.67;;;;;;;;;;4983775;28;20053;-74
2023/09/22 03:06:50;;;;;;;163.43;44.90;;;;;;;;;;4988088;28;20373;-74
2023/09/22 03:09:17;;;;;;;153.18;41.67;;;;;;;;;;4971031;28;20456;-74
2023/09/22 03:11:43;;;;;;;155.70;41.80;;;;;;;;;;4989924;28;20095;-73
2023/09/22 03:14:10;;;;;;;166.95;41.97;;;;;;;;;;4999674;28;20038;-74
2023/09/22 03:16:36;;;;;;;168.05;42.25;;;;;;;;;;4988805;28;20056;-72
2023/09/22 03:19:03;;;;;;;152.02;41.30;;;;;;;;;;4989315;28;20041;-75
2023/09/22 03:21:30;;;;;;;159.30;42.88;;;;;;;;;;5006542;28;20036;-74
2023/09/22 03:23:56;;;;;;;149.82;40.83;;;;;;;;;;4985056;28;20124;-74
2023/09/22 03:26:22;;;;;;;158.77;43.42;;;;;;;;;;5001595;28;20684;-74
2023/09/22 03:28:49;;;;;;;151.55;42.45;;;;;;;;;;4985564;28;20089;-73
2023/09/22 03:31:19;;;;;;;153.93;41.28;;;;;;;;;;4985307;28;20692;-74
2023/09/22 03:33:47;;;;;;;152.23;41.92;;;;;;;;;;4987645;28;20176;-73
2023/09/22 03:36:14;;;;;;;151.75;40.05;;;;;;;;;;4995292;28;20049;-74
2023/09/22 03:38:48;;;;;;;137.40;38.90;;;;;;;;;;4980853;28;20180;-74
2023/09/22 03:41:17;;;;;;;146.80;37.67;;;;;;;;;;4987144;28;20045;-74
2023/09/22 03:43:43;;;;;;;150.07;38.58;;;;;;;;;;4972003;28;20073;-73
2023/09/22 03:46:11;;;;;;;136.43;39.58;;;;;;;;;;4970643;28;20045;-73
2023/09/22 03:48:38;;;;;;;146.32;39.78;;;;;;;;;;5004921;28;20022;-74
2023/09/22 03:51:05;;;;;;;132.93;36.60;;;;;;;;;;4996799;28;20403;-74
2023/09/22 03:53:31;;;;;;;133.98;35.60;;;;;;;;;;4998518;28;20057;-74
2023/09/22 03:55:57;;;;;;;121.97;33.33;;;;;;;;;;4999006;28;20049;-74
2023/09/22 03:58:24;;;;;;;131.68;34.78;;;;;;;;;;4980157;28;20022;-74
2023/09/22 04:00:53;;;;;;;119.90;34.22;;;;;;;;;;5000388;28;20527;-74
2023/09/22 04:03:20;;;;;;;121.43;32.92;;;;;;;;;;4995328;28;21953;-73
2023/09/22 04:05:46;;;;;;;132.77;34.33;;;;;;;;;;4999300;28;20029;-73
2023/09/22 04:08:12;;;;;;;129.07;36.00;;;;;;;;;;4983607;28;20052;-74
2023/09/22 04:10:41;;;;;;;119.40;33.03;;;;;;;;;;4988513;28;20045;-74
2023/09/22 04:13:07;;;;;;;139.40;34.67;;;;;;;;;;4983465;28;20154;-75
2023/09/22 04:15:33;;;;;;;130.07;33.08;;;;;;;;;;4988904;28;20541;-75
2023/09/22 04:18:01;;;;;;;119.20;32.55;;;;;;;;;;4988616;28;20034;-74
2023/09/22 04:20:29;;;;;;;124.25;32.35;;;;;;;;;;4973464;28;20026;-74
2023/09/22 04:22:56;;;;;;;116.75;30.33;;;;;;;;;;4995333;28;20030;-74
2023/09/22 04:25:29;;;;;;;116.53;31.30;;;;;;;;;;4996960;28;20489;-74
2023/09/22 04:28:07;;;;;;;106.70;31.27;;;;;;;;;;5001564;28;20022;-74
2023/09/22 04:30:37;;;;;;;108.47;30.35;;;;;;;;;;4995793;28;20168;-74
2023/09/22 04:33:04;;;;;;;115.27;30.50;;;;;;;;;;4977891;28;20030;-74
2023/09/22 04:35:33;;;;;;;111.03;29.85;;;;;;;;;;4987959;28;20026;-74
2023/09/22 04:38:01;;;;;;;104.25;28.65;;;;;;;;;;4999676;28;20030;-74
2023/09/22 04:40:35;;;;;;;105.93;29.83;;;;;;;;;;4999525;28;20070;-74
2023/09/22 04:43:02;;;;;;;100.47;30.33;;;;;;;;;;5000370;28;20096;-75
2023/09/22 04:45:29;;;;;;;97.30;30.13;;;;;;;;;;4984297;28;20026;-75
2023/09/22 04:47:56;;;;;;;92.20;28.40;;;;;;;;;;4999772;28;20037;-75
2023/09/22 04:50:22;;;;;;;97.47;28.13;;;;;;;;;;4977895;28;20046;-74
2023/09/22 04:52:49;;;;;;;81.20;27.95;;;;;;;;;;4997103;28;20022;-74
2023/09/22 04:55:16;;;;;;;90.75;28.60;;;;;;;;;;4996638;28;20132;-74
2023/09/22 04:57:43;;;;;;;90.65;27.52;;;;;;;;;;4996283;28;20034;-74
2023/09/22 05:00:16;;;;;;;82.85;26.98;;;;;;;;;;4994789;28;20030;-75
2023/09/22 05:02:43;;;;;;;73.82;26.30;;;;;;;;;;5000216;28;20530;-76
2023/09/22 05:05:10;;;;;;;65.97;26.35;;;;;;;;;;4997924;28;20068;-74
2023/09/22 05:07:37;;;;;;;75.82;27.15;;;;;;;;;;4997166;28;20065;-75
2023/09/22 05:10:03;;;;;;;67.93;27.38;;;;;;;;;;4982967;28;20567;-75
2023/09/22 05:12:32;;;;;;;61.60;25.60;;;;;;;;;;4997751;28;20030;-71
2023/09/22 05:15:01;;;;;;;68.03;25.67;;;;;;;;;;5002160;28;20026;-73
2023/09/22 05:17:28;;;;;;;64.70;26.17;;;;;;;;;;4999090;28;20145;-73
2023/09/22 05:19:54;;;;;;;66.13;26.17;;;;;;;;;;5006075;28;20026;-73
2023/09/22 05:22:23;;;;;;;62.22;26.27;;;;;;;;;;4997818;28;20031;-73
2023/09/22 05:24:49;;;;;;;59.58;25.67;;;;;;;;;;5003690;28;20030;-72
2023/09/22 05:27:16;;;;;;;60.97;27.35;;;;;;;;;;4996059;28;20053;-73
2023/09/22 05:29:42;;;;;;;65.65;28.67;;;;;;;;;;4996013;28;20041;-73
2023/09/22 05:32:09;;;;;;;62.63;25.70;;;;;;;;;;4994134;28;20046;-73
2023/09/22 05:34:37;;;;;;;62.65;25.92;;;;;;;;;;5000467;28;20022;-74
2023/09/22 05:37:03;;;;;;;63.95;25.20;;;;;;;;;;4977695;28;20049;-73
2023/09/22 05:39:29;;;;;;;53.85;25.45;;;;;;;;;;4990623;28;20038;-74
2023/09/22 05:41:55;;;;;;;62.13;25.40;;;;;;;;;;4980810;28;20108;-73
2023/09/22 05:44:21;;;;;;;50.78;24.75;;;;;;;;;;4994373;28;20023;-75
2023/09/22 05:46:51;;;;;;;48.15;23.30;;;;;;;;;;4998520;28;20042;-75
2023/09/22 05:49:17;;;;;;;50.67;23.25;;;;;;;;;;4993574;28;20032;-74
2023/09/22 05:51:43;;;;;;;46.67;24.38;;;;;;;;;;4994401;28;20045;-74
2023/09/22 05:54:10;;;;;;;53.28;23.95;;;;;;;;;;5000929;28;20052;-74
2023/09/22 05:56:36;;;;;;;52.85;25.38;;;;;;;;;;4989853;28;20026;-75
2023/09/22 05:59:06;;;;;;;49.70;23.70;;;;;;;;;;4991905;28;20165;-74
2023/09/22 06:01:36;;;;;;;45.00;22.13;;;;;;;;;;4995039;28;20089;-74
2023/09/22 06:04:05;;;;;;;45.03;22.75;;;;;;;;;;4994064;28;20491;-74
2023/09/22 06:06:34;;;;;;;42.97;21.67;;;;;;;;;;4994327;28;20087;-75
2023/09/22 06:09:00;;;;;;;48.63;22.15;;;;;;;;;;4969842;28;20021;-74
2023/09/22 06:11:26;;;;;;;41.38;21.90;;;;;;;;;;4991861;28;20120;-72
2023/09/22 06:13:53;;;;;;;42.83;21.45;;;;;;;;;;5001597;28;20022;-74
2023/09/22 06:16:19;;;;;;;39.40;21.27;;;;;;;;;;4979572;28;20115;-75
2023/09/22 06:18:45;;;;;;;33.85;19.10;;;;;;;;;;4998125;28;20109;-74
2023/09/22 06:21:12;;;;;;;35.90;19.42;;;;;;;;;;5003827;28;20558;-74
2023/09/22 06:23:38;;;;;;;30.48;16.90;;;;;;;;;;4993536;28;20105;-74
2023/09/22 06:26:05;;;;;;;32.75;16.40;;;;;;;;;;4983884;28;20045;-74
2023/09/22 06:28:32;;;;;;;29.35;15.50;;;;;;;;;;4997687;28;20018;-74
2023/09/22 06:31:02;;;;;;;26.85;14.10;;;;;;;;;;4989910;28;20034;-75
2023/09/22 06:33:30;;;;;;;23.63;12.48;;;;;;;;;;4994331;28;20030;-75
2023/09/22 06:36:05;;;;;;;19.40;11.43;;;;;;;;;;4997154;28;20119;-74
2023/09/22 06:38:35;;;;;;;23.85;11.70;;;;;;;;;;4996626;28;20028;-74
2023/09/22 06:41:01;;;;;;;27.60;12.60;;;;;;;;;;4996817;28;20105;-74
2023/09/22 06:43:29;;;;;;;17.52;12.05;;;;;;;;;;4985759;28;20392;-74
2023/09/22 06:45:58;;;;;;;19.70;10.70;;;;;;;;;;4995724;28;20029;-72
2023/09/22 06:48:28;;;;;;;17.65;9.55;;;;;;;;;;4996670;28;20048;-73
2023/09/22 06:51:00;;;;;;;14.73;8.90;;;;;;;;;;4996751;28;20049;-73
2023/09/22 06:53:28;;;;;;;18.17;8.95;;;;;;;;;;4985405;28;20061;-73
2023/09/22 06:56:20;;;;;;;14.70;8.85;;;;;;;;;;4996044;28;20045;-72
2023/09/22 06:58:47;;;;;;;15.93;8.50;;;;;;;;;;4976490;28;20042;-73
2023/09/22 07:01:14;;;;;;;15.63;8.50;;;;;;;;;;4993551;28;20066;-73
2023/09/22 07:03:40;;;;;;;19.35;8.25;;;;;;;;;;4998135;28;20050;-73
2023/09/22 07:06:09;;;;;;;11.68;7.90;;;;;;;;;;4985610;28;20042;-74
2023/09/22 07:08:35;;;;;;;15.10;8.52;;;;;;;;;;4989746;28;20026;-74
2023/09/22 07:11:05;;;;;;;14.93;8.25;;;;;;;;;;4982276;28;20381;-75
2023/09/22 07:13:31;;;;;;;11.20;7.97;;;;;;;;;;5000550;28;20058;-74
2023/09/22 07:15:58;;;;;;;13.23;7.70;;;;;;;;;;5004169;28;20033;-74
2023/09/22 07:18:25;;;;;;;12.98;7.75;;;;;;;;;;5000492;28;20549;-74
2023/09/22 07:20:52;;;;;;;12.23;8.00;;;;;;;;;;4992483;28;20065;-74
2023/09/22 07:23:19;;;;;;;10.32;6.88;;;;;;;;;;4995110;28;20033;-74
2023/09/22 07:25:46;;;;;;;11.70;6.90;;;;;;;;;;4972817;28;20058;-74
2023/09/22 07:28:13;;;;;;;11.63;6.55;;;;;;;;;;5002152;28;20022;-74
2023/09/22 07:30:39;;;;;;;12.45;7.03;;;;;;;;;;5000191;28;20030;-73
2023/09/22 07:33:05;;;;;;;10.50;6.85;;;;;;;;;;5001398;28;20030;-73
2023/09/22 07:35:31;;;;;;;11.40;6.15;;;;;;;;;;4974371;28;20030;-73
2023/09/22 07:37:57;;;;;;;10.10;5.40;;;;;;;;;;4990158;28;20113;-73
2023/09/22 07:40:23;;;;;;;10.50;5.43;;;;;;;;;;4989268;28;20102;-73
2023/09/22 07:42:49;;;;;;;10.35;5.47;;;;;;;;;;4998291;28;20113;-73
2023/09/22 07:45:15;;;;;;;8.30;5.65;;;;;;;;;;5002452;28;20113;-73
2023/09/22 07:47:42;;;;;;;8.35;5.38;;;;;;;;;;4989947;28;20089;-74
2023/09/22 07:50:08;;;;;;;10.40;5.60;;;;;;;;;;4990574;28;20100;-74
2023/09/22 07:52:35;;;;;;;12.88;5.15;;;;;;;;;;4989930;28;20638;-74
2023/09/22 07:55:01;;;;;;;14.02;6.22;;;;;;;;;;4992518;28;20042;-73
2023/09/22 07:57:30;;;;;;;8.13;4.35;;;;;;;;;;5008016;28;20038;-73
2023/09/22 07:59:57;;;;;;;7.03;4.30;;;;;;;;;;4980007;28;20038;-73
2023/09/22 08:02:24;;;;;;;6.90;3.88;;;;;;;;;;4980325;28;20870;-73
2023/09/22 08:04:50;;;;;;;8.77;3.40;;;;;;;;;;4990111;28;20034;-74
2023/09/22 08:07:18;;;;;;;4.85;3.10;;;;;;;;;;4976700;28;20161;-72
2023/09/22 08:09:44;;;;;;;8.38;3.50;;;;;;;;;;4994397;28;20041;-72
2023/09/22 08:12:10;;;;;;;6.82;3.83;;;;;;;;;;5004564;28;20026;-72
2023/09/22 08:14:36;;;;;;;6.85;3.10;;;;;;;;;;4991068;28;20581;-73
2023/09/22 08:17:06;;;;;;;6.57;2.63;;;;;;;;;;4994100;28;20181;-73
2023/09/22 08:19:32;;;;;;;5.20;3.00;;;;;;;;;;4972064;28;20027;-73
2023/09/22 08:21:59;;;;;;;4.55;2.40;;;;;;;;;;5004110;28;20054;-73
2023/09/22 08:24:25;;;;;;;4.30;2.78;;;;;;;;;;4978257;28;20039;-72
2023/09/22 08:26:51;;;;;;;6.15;2.65;;;;;;;;;;4995525;28;20120;-73
2023/09/22 08:29:18;;;;;;;5.30;2.55;;;;;;;;;;4995128;28;20500;-73
2023/09/22 08:31:44;;;;;;;6.43;2.28;;;;;;;;;;4994542;28;20096;-73
2023/09/22 08:34:11;;;;;;;8.00;2.10;;;;;;;;;;4976373;28;20038;-73
2023/09/22 08:36:37;;;;;;;4.10;2.00;;;;;;;;;;5004989;28;20022;-73
2023/09/22 08:39:04;;;;;;;5.50;2.00;;;;;;;;;;4980947;28;20129;-73
2023/09/22 08:41:32;;;;;;;2.97;1.85;;;;;;;;;;4995042;28;20037;-72
2023/09/22 08:43:59;;;;;;;5.78;1.85;;;;;;;;;;4998302;28;20134;-73
2023/09/22 08:46:25;;;;;;;4.38;2.22;;;;;;;;;;4992929;28;20408;-73
2023/09/22 08:48:52;;;;;;;3.80;2.22;;;;;;;;;;4975068;28;20629;-73
2023/09/22 08:51:18;;;;;;;7.45;2.78;;;;;;;;;;5007299;28;20084;-71
2023/09/22 08:53:45;;;;;;;6.45;2.30;;;;;;;;;;5007546;28;20068;-71
2023/09/22 08:56:12;;;;;;;5.65;2.30;;;;;;;;;;5002603;28;20034;-72
2023/09/22 08:58:38;;;;;;;4.03;2.20;;;;;;;;;;4967544;28;20034;-72
2023/09/22 09:01:04;;;;;;;4.00;2.58;;;;;;;;;;4988631;28;20081;-72
2023/09/22 09:03:33;;;;;;;6.00;2.72;;;;;;;;;;4987233;28;20182;-72
2023/09/22 09:06:06;;;;;;;9.18;2.72;;;;;;;;;;5001991;28;20042;-72
2023/09/22 09:08:34;;;;;;;6.22;2.80;;;;;;;;;;5001418;28;20049;-72
2023/09/22 09:11:08;;;;;;;4.85;2.90;;;;;;;;;;5001471;28;20052;-71
2023/09/22 09:13:34;;;;;;;4.50;2.55;;;;;;;;;;5000181;28;20045;-72
2023/09/22 09:16:08;;;;;;;8.10;2.78;;;;;;;;;;5001395;28;20038;-72
2023/09/22 09:18:35;;;;;;;4.32;2.70;;;;;;;;;;5011908;28;20108;-73
2023/09/22 09:21:11;;;;;;;5.38;2.60;;;;;;;;;;5003636;28;20459;-74
2023/09/22 09:23:38;;;;;;;5.20;2.28;;;;;;;;;;5001858;28;20030;-72
2023/09/22 09:26:05;;;;;;;5.13;2.20;;;;;;;;;;4998128;28;20040;-72
2023/09/22 09:28:31;;;;;;;2.90;2.10;;;;;;;;;;5001664;28;20050;-72
2023/09/22 09:30:58;;;;;;;9.68;2.70;;;;;;;;;;5000484;28;20099;-72
2023/09/22 09:33:24;;;;;;;7.63;2.63;;;;;;;;;;4992498;28;20038;-72
2023/09/22 09:35:51;;;;;;;10.10;3.55;;;;;;;;;;4991064;28;20041;-72
2023/09/22 09:38:18;;;;;;;4.88;2.80;;;;;;;;;;4992121;28;20031;-72
2023/09/22 09:40:44;;;;;;;5.07;2.25;;;;;;;;;;4991037;28;20031;-73
2023/09/22 09:43:14;;;;;;;5.68;3.13;;;;;;;;;;5009183;28;20085;-73
2023/09/22 09:45:45;;;;;;;7.10;2.88;;;;;;;;;;4992851;28;20129;-72
2023/09/22 09:48:14;;;;;;;5.43;2.92;;;;;;;;;;4997429;28;20030;-71
2023/09/22 09:50:41;;;;;;;4.05;2.50;;;;;;;;;;5009105;28;20034;-72
2023/09/22 09:53:11;;;;;;;4.15;2.50;;;;;;;;;;4996392;28;20456;-71
2023/09/22 09:55:37;;;;;;;5.65;2.47;;;;;;;;;;5002964;28;20030;-72
2023/09/22 09:58:04;;;;;;;4.07;2.00;;;;;;;;;;5002291;28;20044;-72
2023/09/22 10:00:35;;;;;;;5.93;2.65;;;;;;;;;;5002887;28;20383;-71
2023/09/22 10:03:02;;;;;;;2.45;2.20;;;;;;;;;;4997613;28;20061;-72
2023/09/22 10:05:28;;;;;;;6.25;2.50;;;;;;;;;;5009585;28;20033;-71
2023/09/22 10:07:56;;;;;;;8.02;2.70;;;;;;;;;;4989905;28;20085;-72
2023/09/22 10:10:23;;;;;;;3.70;2.28;;;;;;;;;;5002775;28;20044;-72
2023/09/22 10:12:49;;;;;;;7.60;2.72;;;;;;;;;;4979592;28;20053;-71
2023/09/22 10:15:16;;;;;;;4.13;2.25;;;;;;;;;;4973207;28;20045;-71
2023/09/22 10:17:42;;;;;;;4.10;2.92;;;;;;;;;;4974970;28;20030;-71
2023/09/22 10:20:13;;;;;;;5.40;2.67;;;;;;;;;;4974868;28;20064;-72
2023/09/22 10:22:40;;;;;;;4.75;2.85;;;;;;;;;;4982770;28;20034;-71
2023/09/22 10:25:12;;;;;;;7.05;2.88;;;;;;;;;;4998684;28;20056;-71
2023/09/22 10:27:57;;;;;;;6.70;3.10;;;;;;;;;;5006124;28;20034;-71
2023/09/22 10:30:30;;;;;;;4.18;2.88;;;;;;;;;;5010043;28;20106;-71
2023/09/22 10:33:15;;;;;;;10.60;2.78;;;;;;;;;;4994074;28;20076;-72
2023/09/22 10:35:41;;;;;;;9.93;2.92;;;;;;;;;;4973609;28;20062;-72
2023/09/22 10:38:10;;;;;;;6.60;2.90;;;;;;;;;;4994921;28;20034;-72
2023/09/22 10:40:36;;;;;;;6.45;2.83;;;;;;;;;;4970962;28;20026;-72
2023/09/22 10:43:04;;;;;;;3.63;2.40;;;;;;;;;;4997271;28;20061;-71
2023/09/22 10:45:30;;;;;;;7.18;2.42;;;;;;;;;;4999366;28;20030;-71
2023/09/22 10:48:00;;;;;;;6.40;2.20;;;;;;;;;;4995032;28;20030;-71
2023/09/22 10:50:30;;;;;;;6.25;2.65;;;;;;;;;;4979134;28;21093;-71
2023/09/22 10:52:56;;;;;;;5.03;2.30;;;;;;;;;;5001291;28;20097;-71
2023/09/22 10:55:26;;;;;;;5.00;2.33;;;;;;;;;;5005532;28;20061;-72
2023/09/22 10:57:53;;;;;;;5.95;2.25;;;;;;;;;;4998917;28;20030;-71
2023/09/22 11:00:21;;;;;;;10.77;2.78;;;;;;;;;;4998482;28;20133;-72
2023/09/22 11:02:47;;;;;;;8.75;2.22;;;;;;;;;;5001138;28;20109;-71
2023/09/22 11:05:13;;;;;;;5.38;2.15;;;;;;;;;;5003417;28;20479;-71
2023/09/22 11:07:42;;;;;;;3.53;1.85;;;;;;;;;;4995340;28;20034;-72
2023/09/22 11:10:08;;;;;;;7.32;2.67;;;;;;;;;;4999932;28;20022;-72
2023/09/22 11:12:34;;;;;;;3.17;1.73;;;;;;;;;;4999771;28;20049;-71
2023/09/22 11:15:04;;;;;;;2.88;1.80;;;;;;;;;;4999696;28;20022;-72
2023/09/22 11:17:41;;;;;;;6.47;2.10;;;;;;;;;;5003408;28;20022;-72
2023/09/22 11:20:18;;;;;;;5.32;1.80;;;;;;;;;;5004067;28;20042;-72
2023/09/22 11:22:45;;;;;;;5.32;1.73;;;;;;;;;;5003753;28;20151;-71
2023/09/22 11:25:12;;;;;;;4.10;1.70;;;;;;;;;;4994497;28;20054;-71
2023/09/22 11:27:46;;;;;;;3.58;2.05;;;;;;;;;;4982433;28;20113;-71
2023/09/22 11:30:19;;;;;;;6.47;1.80;;;;;;;;;;4993444;28;20514;-72
2023/09/22 11:32:46;;;;;;;3.63;1.95;;;;;;;;;;4998189;28;20030;-71
2023/09/22 11:35:28;;;;;;;5.88;2.20;;;;;;;;;;4976331;28;20031;-71
2023/09/22 11:37:55;;;;;;;4.68;1.42;;;;;;;;;;4990933;28;20057;-72
2023/09/22 11:40:22;;;;;;;3.20;1.50;;;;;;;;;;4978985;28;20145;-71
2023/09/22 11:42:49;;;;;;;4.68;1.58;;;;;;;;;;4983307;28;20038;-71
2023/09/22 11:45:25;;;;;;;6.93;2.15;;;;;;;;;;4985085;28;20037;-72
2023/09/22 11:48:03;;;;;;;3.33;1.45;;;;;;;;;;4996351;28;20552;-72
2023/09/22 11:50:30;;;;;;;4.70;1.55;;;;;;;;;;5007651;28;20032;-72
2023/09/22 11:53:15;;;;;;;4.57;1.30;;;;;;;;;;4986114;28;20057;-72
2023/09/22 11:55:41;;;;;;;4.63;1.48;;;;;;;;;;5003405;28;20492;-72
2023/09/22 11:58:08;;;;;;;3.88;1.30;;;;;;;;;;5009067;28;20120;-72
2023/09/22 12:00:34;;;;;;;2.60;1.13;;;;;;;;;;5000592;28;20200;-73
2023/09/22 12:03:00;;;;;;;4.57;1.83;;;;;;;;;;4993400;28;20120;-73
2023/09/22 12:05:26;;;;;;;4.22;1.10;;;;;;;;;;4976450;28;20084;-73
2023/09/22 12:07:52;;;;;;;4.57;1.30;;;;;;;;;;4992147;28;20042;-73
2023/09/22 12:10:19;;;;;;;4.68;1.20;;;;;;;;;;4986593;28;20038;-72
2023/09/22 12:12:46;;;;;;;3.35;1.35;;;;;;;;;;5005308;28;20108;-73
2023/09/22 12:15:12;;;;;;;2.40;1.35;;;;;;;;;;4989883;28;20097;-73
2023/09/22 12:17:38;;;;;;;2.55;1.23;;;;;;;;;;4973231;28;20034;-72
2023/09/22 12:20:05;;;;;;;3.92;1.23;;;;;;;;;;4973367;28;20066;-72
2023/09/22 12:22:32;;;;;;;5.10;1.60;;;;;;;;;;4977765;28;20053;-72
2023/09/22 12:24:58;;;;;;;2.88;1.30;;;;;;;;;;4985065;28;20089;-72
2023/09/22 12:27:24;;;;;;;4.40;1.45;;;;;;;;;;4996930;28;20052;-71
2023/09/22 12:29:50;;;;;;;3.60;1.00;;;;;;;;;;5003489;28;20031;-71
2023/09/22 12:32:16;;;;;;;3.15;1.02;;;;;;;;;;4993993;28;20032;-71
2023/09/22 12:34:42;;;;;;;7.07;1.00;;;;;;;;;;4999080;28;20076;-71
2023/09/22 12:37:09;;;;;;;3.10;1.30;;;;;;;;;;4995268;28;20068;-72
2023/09/22 12:39:36;;;;;;;3.08;1.10;;;;;;;;;;5005244;28;20039;-72
2023/09/22 12:42:02;;;;;;;1.90;0.90;;;;;;;;;;4976388;28;20488;-73
2023/09/22 12:44:28;;;;;;;3.58;1.08;;;;;;;;;;4990330;28;20041;-72
2023/09/22 12:46:55;;;;;;;1.98;0.88;;;;;;;;;;5003651;28;20042;-72
2023/09/22 12:49:21;;;;;;;3.38;0.80;;;;;;;;;;4980452;28;20048;-73
2023/09/22 12:51:47;;;;;;;2.90;0.90;;;;;;;;;;5011323;28;20030;-72
2023/09/22 12:54:14;;;;;;;5.03;1.10;;;;;;;;;;4995745;28;20478;-73
2023/09/22 12:56:40;;;;;;;3.17;1.15;;;;;;;;;;5000024;28;20038;-72
2023/09/22 12:59:09;;;;;;;3.92;0.88;;;;;;;;;;5005950;28;20115;-72
2023/09/22 13:01:35;;;;;;;3.17;0.90;;;;;;;;;;5010803;28;20074;-72
2023/09/22 13:04:01;;;;;;;5.28;1.33;;;;;;;;;;5012947;28;20037;-71
2023/09/22 13:06:28;;;;;;;2.38;0.90;;;;;;;;;;5010971;28;20073;-71
2023/09/22 13:08:54;;;;;;;4.20;0.90;;;;;;;;;;4997762;28;20033;-70
2023/09/22 13:11:20;;;;;;;2.97;0.90;;;;;;;;;;4992257;28;20045;-73
2023/09/22 13:13:47;;;;;;;3.28;0.85;;;;;;;;;;4983600;28;20033;-71
2023/09/22 13:16:14;;;;;;;3.33;1.20;;;;;;;;;;5012691;28;20084;-71
2023/09/22 13:18:42;;;;;;;4.97;1.10;;;;;;;;;;5000982;28;20033;-72
2023/09/22 13:21:12;;;;;;;4.20;1.20;;;;;;;;;;5009504;28;20030;-72
2023/09/22 13:23:38;;;;;;;4.03;1.20;;;;;;;;;;4993991;28;20029;-71
2023/09/22 13:26:05;;;;;;;6.13;1.52;;;;;;;;;;4974888;28;20296;-71
2023/09/22 13:28:31;;;;;;;4.38;1.20;;;;;;;;;;5011506;28;20061;-71
2023/09/22 13:30:57;;;;;;;3.58;1.30;;;;;;;;;;4993234;28;20052;-71
2023/09/22 13:33:26;;;;;;;5.85;1.60;;;;;;;;;;4991538;28;20038;-71
2023/09/22 13:35:52;;;;;;;3.92;1.45;;;;;;;;;;4995454;28;20534;-71
2023/09/22 13:38:19;;;;;;;4.47;1.88;;;;;;;;;;5000526;28;20022;-71
2023/09/22 13:40:46;;;;;;;4.95;1.75;;;;;;;;;;5009303;28;20032;-72
2023/09/22 13:43:13;;;;;;;4.70;1.60;;;;;;;;;;4994020;28;20030;-71
2023/09/22 13:45:39;;;;;;;4.07;1.60;;;;;;;;;;4994126;28;20022;-72
2023/09/22 13:48:09;;;;;;;6.50;1.60;;;;;;;;;;5004131;28;20034;-73
2023/09/22 13:50:38;;;;;;;3.27;1.53;;;;;;;;;;4998047;28;20091;-73
2023/09/22 13:53:05;;;;;;;4.25;1.85;;;;;;;;;;4992779;28;20029;-72
2023/09/22 13:55:38;;;;;;;4.07;2.28;;;;;;;;;;4974643;28;20030;-71
2023/09/22 13:58:05;;;;;;;4.68;2.42;;;;;;;;;;5014955;28;20550;-72
2023/09/22 14:00:31;;;;;;;4.65;1.98;;;;;;;;;;4982391;28;20751;-74
2023/09/22 14:02:57;;;;;;;5.00;2.10;;;;;;;;;;5011754;28;20463;-72
2023/09/22 14:05:25;;;;;;;5.32;2.90;;;;;;;;;;4989082;28;20038;-72
2023/09/22 14:07:51;;;;;;;5.90;2.55;;;;;;;;;;5002449;28;20044;-72
2023/09/22 14:10:19;;;;;;;4.18;2.20;;;;;;;;;;4988659;28;20034;-72
2023/09/22 14:12:46;;;;;;;7.60;2.05;;;;;;;;;;4980303;28;20026;-72
2023/09/22 14:15:12;;;;;;;4.13;2.03;;;;;;;;;;5002557;28;20373;-72
2023/09/22 14:17:38;;;;;;;7.18;2.20;;;;;;;;;;4994386;28;20093;-72
2023/09/22 14:20:05;;;;;;;6.68;2.38;;;;;;;;;;5002015;28;20035;-72
2023/09/22 14:22:31;;;;;;;5.45;2.45;;;;;;;;;;4999624;28;20045;-73
2023/09/22 14:24:57;;;;;;;6.43;2.35;;;;;;;;;;4978544;28;20344;-72
2023/09/22 14:27:24;;;;;;;3.85;2.50;;;;;;;;;;5008204;28;20096;-73